Currently 68°F in Murrieta, California, USA
68°F
79°F / 44°F
2 mph N
0.00"
Tuesday, October 16, 2018 6:53 PM PDT

Murrieta, California Weather Summary
Last 36 Hours

Temperature Winds Hourly Humidity Dewpoint
Time Report Norm Report Norm Max Gusts Precip. Rpt. Norm Rpt. Norm Pressure
1Tue 06:53 PM  68.2°F  68°F  2 mph N  5 mph  2 mph  0.00"  17%  66%  20°F  56°F  30.03"
Tue 06:00 PM  73.2°F  71°F  2 mph W  6 mph  13 mph  0.00"  13%  60%  18°F  56°F  30.02"
Tue 05:00 PM  76.0°F  74°F  calm  7 mph  15 mph  0.00"  10%  54%  14°F  56°F  30.01"
Tue 04:00 PM  78.0°F  78°F  calm  7 mph  16 mph  0.00"  10%  47%  14°F  55°F  30.01"
Tue 03:00 PM  79.1°F  79°F  calm  6 mph  15 mph  0.00"  8%  45%  12°F  55°F  30.02"
2Tue 02:55 PM  79.2°F  79°F  calm  6 mph  none  ----  11%  45%  17°F  55°F  30.02"
Tue 02:00 PM  78.6°F  79°F  calm  6 mph  16 mph  0.00"  10%  44%  16°F  54°F  30.03"
Tue 01:00 PM  78.0°F  78°F  calm  5 mph  14 mph  0.00"  11%  45%  16°F  54°F  30.06"
Tue 12:00 PM  77.3°F  76°F  calm  5 mph  16 mph  0.00"  13%  48%  20°F  55°F  30.07"
Tue 11:00 AM  74.6°F  73°F  calm  3 mph  14 mph  0.00"  14%  56%  21°F  55°F  30.09"
Tue 10:00 AM  69.1°F  68°F  calm  2 mph  1 mph  0.00"  21%  68%  26°F  56°F  30.10"
Tue 09:00 AM  57.5°F  61°F  calm  1 mph  5 mph  0.00"  46%  79%  36°F  55°F  30.10"
Tue 08:00 AM  49.1°F  57°F  calm  1 mph  5 mph  0.00"  54%  85%  32°F  52°F  30.09"
3Tue 07:07 AM  43.7°F  55°F  calm  1 mph  2 mph  ----  62%  86%  31°F  51°F  30.07"
Tue 07:00 AM  43.8°F  55°F  calm  1 mph  5 mph  0.00"  59%  86%  30°F  51°F  30.07"
Tue 06:00 AM  45.1°F  56°F  calm  1 mph  4 mph  0.00"  58%  85%  31°F  51°F  30.07"
Tue 05:00 AM  46.5°F  56°F  calm  1 mph  2 mph  0.00"  53%  84%  29°F  51°F  30.07"
Tue 04:00 AM  48.7°F  57°F  calm  1 mph  4 mph  0.00"  46%  83%  28°F  51°F  30.05"
Tue 03:00 AM  51.2°F  57°F  calm  1 mph  2 mph  0.00"  42%  83%  28°F  52°F  30.06"
Tue 02:00 AM  53.7°F  58°F  calm  1 mph  10 mph  0.00"  39%  82%  28°F  52°F  30.06"
Tue 01:00 AM  58.0°F  58°F  4 mph NW  1 mph  9 mph  0.00"  27%  82%  23°F  52°F  30.06"
Tue 12:00 AM  58.2°F  59°F  calm  1 mph  8 mph  0.00"  24%  81%  20°F  53°F  30.07"
Mon 11:00 PM  59.1°F  60°F  calm  2 mph  9 mph  0.00"  26%  79%  23°F  53°F  30.07"
Mon 10:00 PM  58.8°F  61°F  5 mph NW  2 mph  8 mph  0.00"  26%  77%  23°F  54°F  30.07"
Mon 09:00 PM  59.0°F  63°F  calm  3 mph  4 mph  0.00"  24%  75%  21°F  54°F  30.06"
Mon 08:00 PM  62.5°F  65°F  calm  4 mph  9 mph  0.00"  18%  72%  17°F  55°F  30.06"
Mon 07:00 PM  67.0°F  67°F  calm  5 mph  21 mph  0.00"  13%  67%  12°F  56°F  30.05"
Mon 06:00 PM  69.5°F  71°F  calm  6 mph  18 mph  0.00"  11%  60%  10°F  56°F  30.04"
Mon 05:00 PM  72.9°F  74°F  calm  7 mph  14 mph  0.00"  11%  54%  14°F  56°F  30.03"
Mon 04:00 PM  75.9°F  78°F  calm  7 mph  17 mph  0.00"  12%  48%  17°F  55°F  30.03"
Mon 03:00 PM  76.6°F  79°F  calm  7 mph  16 mph  0.00"  13%  45%  19°F  55°F  30.03"
Mon 02:00 PM  76.6°F  79°F  calm  6 mph  17 mph  0.00"  13%  44%  21°F  55°F  30.05"
Mon 01:00 PM  74.5°F  78°F  calm  5 mph  26 mph  0.00"  14%  45%  20°F  54°F  30.07"
Mon 12:00 PM  73.4°F  76°F  2 mph W  5 mph  25 mph  0.00"  16%  48%  22°F  55°F  30.10"
Mon 11:00 AM  69.9°F  73°F  calm  3 mph  20 mph  0.00"  19%  56%  24°F  55°F  30.10"
Mon 10:00 AM  65.9°F  68°F  6 mph NW  2 mph  24 mph  0.00"  18%  67%  19°F  56°F  30.12"
Mon 09:00 AM  64.4°F  62°F  5 mph W  1 mph  27 mph  0.00"  21%  79%  22°F  55°F  30.12"
Mon 08:00 AM  63.2°F  57°F  6 mph S  1 mph  23 mph  0.00"  21%  85%  21°F  52°F  30.11"
Mon 07:00 AM  63.2°F  55°F  6 mph S  1 mph  25 mph  0.00"  23%  86%  24°F  51°F  30.10"

  1. Current weather data. No green row appears if the current weather data is also the high or low for the current day.
  2. High temperature for the current day.
  3. Low temperature for the current day.

The Murrieta weather pages are a service of WeatherCurrents. Murrieta, California is located in the Temecula Valley, in southwestern Riverside County, at the junctions of the Interstate 15 and 215 highways.
Copyright ©Tue Oct 16 18:53:21 PDT 2018  WeatherCurrents. All rights reserved. - Submit questions and comments - Privacy Policy

This page automatically refreshes every 10 minutes.